createdAt,value
2022-11-16T00:01:42.746Z,99.81
2022-11-16T00:04:12.535Z,98.88
2022-11-16T00:06:40.975Z,98.23
2022-11-16T00:09:24.200Z,98.90
2022-11-16T00:11:53.205Z,98.56
2022-11-16T00:14:22.094Z,100.00
2022-11-16T00:16:50.369Z,100.00
2022-11-16T00:19:18.683Z,100.00
2022-11-16T00:21:46.791Z,100.00
2022-11-16T00:24:20.783Z,100.00
2022-11-16T00:26:50.293Z,100.00
2022-11-16T00:29:20.356Z,100.00
2022-11-16T00:31:48.973Z,100.00
2022-11-16T00:34:17.263Z,100.00
2022-11-16T00:36:45.230Z,100.00
2022-11-16T00:39:13.710Z,100.00
2022-11-16T00:41:43.526Z,100.00
2022-11-16T00:44:13.341Z,100.00
2022-11-16T00:46:41.166Z,100.00
2022-11-16T00:49:09.668Z,100.00
2022-11-16T00:51:38.459Z,100.00
2022-11-16T00:54:07.679Z,100.00
2022-11-16T00:56:35.514Z,100.00
2022-11-16T00:59:04.735Z,100.00
2022-11-16T01:01:32.372Z,100.00
2022-11-16T01:04:00.079Z,100.00
2022-11-16T01:06:27.730Z,100.00
2022-11-16T01:08:55.397Z,100.00
2022-11-16T01:11:40.791Z,100.00
2022-11-16T01:14:10.795Z,100.00
2022-11-16T01:16:38.456Z,100.00
2022-11-16T01:19:06.640Z,100.00
2022-11-16T01:21:35.202Z,100.00
2022-11-16T01:24:03.182Z,100.00
2022-11-16T01:26:30.902Z,100.00
2022-11-16T01:28:59.564Z,100.00
2022-11-16T01:31:28.519Z,100.00
2022-11-16T01:33:56.303Z,100.00
2022-11-16T01:36:24.089Z,100.00
2022-11-16T01:38:51.822Z,100.00
2022-11-16T01:41:21.463Z,100.00
2022-11-16T01:43:59.312Z,100.00
2022-11-16T01:46:31.629Z,100.00
2022-11-16T01:49:04.264Z,100.00
2022-11-16T01:51:32.945Z,100.00
2022-11-16T01:54:03.560Z,100.00
2022-11-16T01:56:33.091Z,100.00
2022-11-16T01:59:00.841Z,100.00
2022-11-16T02:01:29.845Z,100.00
2022-11-16T02:03:57.624Z,100.00
2022-11-16T02:06:33.677Z,100.00
2022-11-16T02:09:34.914Z,100.00
2022-11-16T02:12:13.931Z,100.00
2022-11-16T02:14:56.789Z,100.00
2022-11-16T02:17:33.836Z,100.00
2022-11-16T02:20:34.492Z,100.00
2022-11-16T02:23:22.521Z,100.00
2022-11-16T02:26:01.043Z,100.00
2022-11-16T02:28:41.605Z,100.00
2022-11-16T02:31:16.394Z,100.00
2022-11-16T02:33:50.024Z,100.00
2022-11-16T02:36:23.373Z,100.00
2022-11-16T02:38:55.940Z,100.00
2022-11-16T02:41:26.204Z,100.00
2022-11-16T02:44:00.992Z,100.00
2022-11-16T02:46:37.190Z,100.00
2022-11-16T02:49:10.361Z,100.00
2022-11-16T02:51:39.981Z,100.00
2022-11-16T02:54:12.703Z,100.00
2022-11-16T02:56:47.376Z,100.00
2022-11-16T02:59:17.623Z,100.00
2022-11-16T03:01:52.275Z,100.00
2022-11-16T03:04:26.386Z,100.00
2022-11-16T03:06:57.645Z,100.00
2022-11-16T03:09:29.750Z,100.00
2022-11-16T03:12:00.095Z,100.00
2022-11-16T03:14:34.115Z,100.00
2022-11-16T03:17:05.123Z,100.00
2022-11-16T03:19:37.165Z,100.00
2022-11-16T03:22:11.531Z,100.00
2022-11-16T03:24:39.900Z,100.00
2022-11-16T03:27:14.363Z,100.00
2022-11-16T03:29:47.991Z,100.00
2022-11-16T03:32:21.692Z,100.00
2022-11-16T03:34:57.741Z,100.00
2022-11-16T03:37:26.829Z,100.00
2022-11-16T03:39:55.813Z,100.00
2022-11-16T03:42:24.912Z,100.00
2022-11-16T03:44:53.397Z,100.00
2022-11-16T03:47:22.597Z,100.00
2022-11-16T03:49:50.214Z,100.00
2022-11-16T03:52:19.133Z,100.00
2022-11-16T03:54:46.745Z,100.00
2022-11-16T03:57:17.993Z,100.00
2022-11-16T03:59:46.235Z,100.00
2022-11-16T04:02:14.161Z,100.00
2022-11-16T04:05:01.218Z,100.00
2022-11-16T04:07:46.204Z,100.00
2022-11-16T04:10:31.578Z,100.00
2022-11-16T04:13:17.292Z,100.00
2022-11-16T04:16:02.641Z,100.00
2022-11-16T04:18:47.892Z,100.00
2022-11-16T04:21:39.914Z,100.00
2022-11-16T04:24:14.075Z,100.00
2022-11-16T04:27:01.638Z,100.00
2022-11-16T04:29:29.896Z,100.00
2022-11-16T04:32:15.313Z,100.00
2022-11-16T04:35:00.715Z,100.00
2022-11-16T04:37:47.367Z,100.00
2022-11-16T04:40:16.317Z,100.00
2022-11-16T04:42:44.449Z,100.00
2022-11-16T04:45:29.692Z,100.00
2022-11-16T04:47:57.353Z,100.00
2022-11-16T04:50:25.031Z,100.00
2022-11-16T04:52:54.044Z,100.00
2022-11-16T04:55:21.668Z,100.00
2022-11-16T04:57:49.375Z,100.00
2022-11-16T05:00:18.118Z,100.00
2022-11-16T05:02:46.297Z,100.00
2022-11-16T05:05:14.434Z,100.00
2022-11-16T05:07:42.297Z,100.00
2022-11-16T05:10:12.360Z,100.00
2022-11-16T05:12:40.192Z,100.00
2022-11-16T05:15:08.841Z,100.00
2022-11-16T05:17:36.744Z,100.00
2022-11-16T05:20:22.630Z,100.00
2022-11-16T05:22:54.600Z,100.00
2022-11-16T05:25:23.672Z,100.00
2022-11-16T05:27:51.326Z,100.00
2022-11-16T05:30:19.383Z,100.00
2022-11-16T05:32:47.458Z,100.00
2022-11-16T05:35:15.124Z,100.00
2022-11-16T05:37:42.688Z,100.00
2022-11-16T05:40:11.813Z,100.00
2022-11-16T05:42:40.765Z,100.00
2022-11-16T05:45:09.073Z,100.00
2022-11-16T05:47:36.707Z,100.00
2022-11-16T05:50:04.664Z,100.00
2022-11-16T05:52:32.321Z,100.00
2022-11-16T05:54:59.973Z,100.00
2022-11-16T05:57:27.540Z,100.00
2022-11-16T05:59:56.500Z,100.00
2022-11-16T06:02:24.190Z,100.00
2022-11-16T06:04:51.848Z,100.00
2022-11-16T06:07:19.518Z,100.00
2022-11-16T06:09:47.204Z,100.00
2022-11-16T06:12:14.810Z,100.00
2022-11-16T06:14:42.397Z,100.00
2022-11-16T06:17:14.451Z,100.00
2022-11-16T06:19:42.455Z,100.00
2022-11-16T06:22:10.089Z,100.00
2022-11-16T06:24:37.965Z,100.00
2022-11-16T06:27:05.563Z,100.00
2022-11-16T06:29:33.201Z,100.00
2022-11-16T06:32:00.937Z,100.00
2022-11-16T06:34:29.973Z,100.00
2022-11-16T06:36:57.633Z,100.00
2022-11-16T06:39:25.612Z,100.00
2022-11-16T06:41:53.224Z,100.00
2022-11-16T06:44:20.826Z,100.00
2022-11-16T06:46:48.515Z,100.00
2022-11-16T06:49:16.162Z,100.00
2022-11-16T06:51:45.328Z,100.00
2022-11-16T06:54:12.988Z,100.00
2022-11-16T06:56:40.604Z,100.00
2022-11-16T06:59:08.253Z,100.00
2022-11-16T07:01:36.004Z,100.00
2022-11-16T07:04:03.717Z,100.00
2022-11-16T07:06:31.554Z,100.00
2022-11-16T07:09:00.509Z,100.00
2022-11-16T07:11:28.124Z,100.00
2022-11-16T07:13:55.736Z,100.00
2022-11-16T07:16:23.350Z,100.00
2022-11-16T07:18:50.984Z,100.00
2022-11-16T07:21:18.831Z,100.00
2022-11-16T07:23:46.740Z,100.00
2022-11-16T07:26:15.724Z,100.00
2022-11-16T07:28:47.974Z,100.00
2022-11-16T07:31:16.553Z,100.00
2022-11-16T07:33:44.196Z,99.28
2022-11-16T07:36:14.004Z,98.08
2022-11-16T07:38:41.694Z,98.07
2022-11-16T07:41:11.598Z,98.05
2022-11-16T07:43:40.819Z,98.84
2022-11-16T07:48:59.127Z,100.00
2022-11-16T07:51:26.796Z,100.00
2022-11-16T07:53:56.194Z,100.00
2022-11-16T07:56:24.095Z,100.00
2022-11-16T07:58:53.158Z,100.00
2022-11-16T08:01:20.941Z,100.00
2022-11-16T08:03:48.580Z,100.00
2022-11-16T08:06:20.241Z,100.00
2022-11-16T08:08:47.850Z,100.00
2022-11-16T08:11:15.439Z,100.00
2022-11-16T08:13:43.847Z,99.62
2022-11-16T08:16:14.591Z,98.53
2022-11-16T08:18:43.043Z,98.21
2022-11-16T08:21:13.804Z,97.89
2022-11-16T08:23:41.934Z,97.88
2022-11-16T08:26:14.238Z,96.00
2022-11-16T08:28:42.998Z,93.17
2022-11-16T08:31:13.700Z,93.39
2022-11-16T08:33:41.431Z,92.95
2022-11-16T08:36:14.292Z,92.45
2022-11-16T08:38:42.289Z,90.82
2022-11-16T08:41:09.988Z,90.00
2022-11-16T08:43:39.440Z,88.23
2022-11-16T08:46:07.539Z,86.25
2022-11-16T08:48:37.645Z,85.56
2022-11-16T08:51:21.762Z,84.36
2022-11-16T08:53:49.753Z,82.76
2022-11-16T08:56:18.875Z,81.73
2022-11-16T08:58:47.232Z,80.62
2022-11-16T09:01:17.087Z,79.91
2022-11-16T09:03:47.132Z,76.39
2022-11-16T09:06:15.202Z,71.54
2022-11-16T09:08:44.765Z,68.66
2022-11-16T09:11:15.583Z,67.12
2022-11-16T09:13:43.436Z,66.08
2022-11-16T09:16:11.473Z,65.80
2022-11-16T09:18:39.093Z,67.17
2022-11-16T09:21:08.157Z,66.42
2022-11-16T09:23:35.800Z,66.53
2022-11-16T09:26:04.269Z,66.47
2022-11-16T09:28:32.583Z,66.44
2022-11-16T09:31:02.762Z,67.95
2022-11-16T09:33:31.427Z,67.78
2022-11-16T09:36:02.594Z,68.42
2022-11-16T09:38:47.485Z,67.99
2022-11-16T09:41:43.207Z,67.83
2022-11-16T09:44:25.487Z,69.16
2022-11-16T09:46:57.391Z,69.72
2022-11-16T09:49:28.167Z,71.58
2022-11-16T09:52:00.639Z,72.91
2022-11-16T09:54:38.058Z,73.70
2022-11-16T09:57:12.740Z,72.69
2022-11-16T09:59:45.568Z,72.04
2022-11-16T10:02:31.249Z,73.62
2022-11-16T10:05:04.396Z,74.06
2022-11-16T10:07:41.824Z,75.02
2022-11-16T10:10:13.962Z,75.11
2022-11-16T10:12:46.699Z,75.95
2022-11-16T10:15:30.516Z,76.52
2022-11-16T10:18:11.587Z,76.02
2022-11-16T10:20:55.007Z,76.18
2022-11-16T10:23:31.786Z,75.99
2022-11-16T10:26:12.981Z,76.23
2022-11-16T10:29:02.143Z,75.51
2022-11-16T10:31:44.319Z,75.22
2022-11-16T10:34:21.077Z,75.02
2022-11-16T10:36:48.683Z,73.95
2022-11-16T10:39:18.952Z,73.48
2022-11-16T10:41:50.298Z,70.04
2022-11-16T10:44:22.705Z,63.82
2022-11-16T10:47:01.598Z,61.66
2022-11-16T10:49:37.027Z,61.16
2022-11-16T10:52:04.850Z,61.24
2022-11-16T10:54:32.471Z,61.17
2022-11-16T10:57:05.696Z,61.46
2022-11-16T10:59:43.058Z,60.63
2022-11-16T11:02:34.621Z,62.08
2022-11-16T11:05:05.685Z,62.05
2022-11-16T11:07:35.272Z,64.20
2022-11-16T11:10:03.453Z,65.06
2022-11-16T11:12:41.190Z,61.29
2022-11-16T11:15:26.246Z,61.39
2022-11-16T11:18:13.884Z,61.78
2022-11-16T11:20:45.110Z,64.15
2022-11-16T11:23:16.803Z,63.47
2022-11-16T11:25:52.387Z,64.97
2022-11-16T11:28:25.038Z,65.91
2022-11-16T11:31:00.115Z,66.61
2022-11-16T11:33:32.243Z,66.68
2022-11-16T11:36:03.920Z,68.01
2022-11-16T11:38:32.226Z,69.01
2022-11-16T11:41:01.501Z,69.58
2022-11-16T11:43:30.868Z,69.64
2022-11-16T11:46:07.118Z,69.38
2022-11-16T11:48:42.256Z,68.87
2022-11-16T11:51:19.038Z,67.62
2022-11-16T11:53:54.371Z,67.95
2022-11-16T11:56:22.203Z,66.88
2022-11-16T11:58:51.963Z,66.79
2022-11-16T12:01:48.657Z,66.50
2022-11-16T12:04:42.818Z,65.49
2022-11-16T12:07:21.807Z,66.23
2022-11-16T12:09:58.161Z,66.58
2022-11-16T12:12:36.408Z,67.57
2022-11-16T12:15:26.994Z,69.40
2022-11-16T12:18:05.562Z,68.85
2022-11-16T12:20:43.672Z,68.20
2022-11-16T12:23:51.270Z,70.32
2022-11-16T12:26:26.163Z,69.99
2022-11-16T12:29:04.999Z,70.60
2022-11-16T12:31:53.956Z,71.20
2022-11-16T12:34:33.942Z,69.60
2022-11-16T12:37:09.416Z,67.48
2022-11-16T12:39:44.118Z,66.53
2022-11-16T12:42:26.690Z,65.97
2022-11-16T12:45:19.036Z,64.11
2022-11-16T12:48:04.633Z,64.15
2022-11-16T12:50:45.550Z,63.84
2022-11-16T12:53:34.618Z,65.40
2022-11-16T12:56:10.533Z,63.34
2022-11-16T12:58:54.188Z,62.97
2022-11-16T13:01:26.149Z,64.35
2022-11-16T13:04:00.944Z,63.99
2022-11-16T13:06:33.100Z,64.52
2022-11-16T13:09:07.745Z,65.01
2022-11-16T13:11:39.223Z,65.03
2022-11-16T13:14:12.662Z,66.69
2022-11-16T13:16:40.714Z,64.04
2022-11-16T13:19:14.348Z,63.49
2022-11-16T13:21:50.793Z,62.94
2022-11-16T13:24:33.544Z,64.75
2022-11-16T13:27:14.344Z,64.48
2022-11-16T13:29:46.938Z,63.74
2022-11-16T13:32:20.648Z,63.71
2022-11-16T13:34:51.145Z,65.02
2022-11-16T13:37:47.214Z,65.69
2022-11-16T13:40:24.458Z,66.50
2022-11-16T13:43:08.293Z,67.03
2022-11-16T13:45:41.792Z,67.24
2022-11-16T13:48:18.731Z,66.69
2022-11-16T13:50:54.104Z,67.81
2022-11-16T13:54:25.065Z,68.07
2022-11-16T13:56:24.190Z,67.34
2022-11-16T13:58:56.338Z,67.22
2022-11-16T14:01:24.439Z,67.51
2022-11-16T14:03:53.471Z,68.45
2022-11-16T14:07:00.755Z,70.10
2022-11-16T14:09:52.574Z,70.57
2022-11-16T14:12:59.489Z,71.01
2022-11-16T14:15:33.328Z,70.58
2022-11-16T14:18:23.812Z,71.66
2022-11-16T14:20:57.586Z,71.92
2022-11-16T14:23:35.937Z,72.07
2022-11-16T14:26:18.800Z,72.10
2022-11-16T14:28:59.781Z,72.61
2022-11-16T14:31:30.493Z,71.69
2022-11-16T14:34:02.484Z,70.98
2022-11-16T14:36:40.945Z,70.53
2022-11-16T14:39:30.686Z,69.24
2022-11-16T14:42:01.634Z,69.60
2022-11-16T14:44:33.288Z,69.63
2022-11-16T14:47:03.531Z,69.43
2022-11-16T14:49:34.826Z,69.40
2022-11-16T14:52:04.555Z,68.68
2022-11-16T14:54:40.002Z,68.17
2022-11-16T14:57:13.957Z,69.56
2022-11-16T14:59:41.623Z,70.99
2022-11-16T15:02:20.168Z,71.38
2022-11-16T15:04:49.087Z,72.23
2022-11-16T15:07:18.494Z,73.24
2022-11-16T15:09:51.385Z,73.51
2022-11-16T15:12:39.161Z,73.56
2022-11-16T15:15:14.325Z,74.41
2022-11-16T15:17:44.207Z,74.97
2022-11-16T15:20:20.872Z,74.68
2022-11-16T15:22:51.591Z,75.40
2022-11-16T15:25:30.558Z,75.86
2022-11-16T15:28:00.457Z,76.10
2022-11-16T15:30:30.960Z,76.50
2022-11-16T15:32:58.624Z,76.49
2022-11-16T15:35:30.785Z,76.98
2022-11-16T15:38:03.497Z,77.07
2022-11-16T15:40:33.981Z,76.76
2022-11-16T15:43:05.043Z,76.91
2022-11-16T15:45:33.685Z,76.68
2022-11-16T15:48:04.851Z,76.70
2022-11-16T15:50:32.720Z,76.47
2022-11-16T15:53:00.372Z,76.50
2022-11-16T15:55:34.814Z,76.58
2022-11-16T15:58:06.180Z,76.27
2022-11-16T16:00:36.647Z,76.39
2022-11-16T16:03:08.637Z,76.05
2022-11-16T16:05:39.269Z,76.70
2022-11-16T16:08:24.697Z,76.80
2022-11-16T16:11:04.851Z,76.83
2022-11-16T16:13:35.813Z,77.11
2022-11-16T16:16:29.739Z,77.25
2022-11-16T16:19:05.097Z,77.45
2022-11-16T16:21:47.478Z,77.85
2022-11-16T16:24:41.116Z,78.33
2022-11-16T16:27:16.054Z,78.44
2022-11-16T16:29:43.782Z,78.61
2022-11-16T16:32:21.943Z,78.11
2022-11-16T16:34:50.265Z,78.06
2022-11-16T16:37:17.912Z,78.26
2022-11-16T16:39:45.602Z,78.59
2022-11-16T16:42:16.304Z,78.80
2022-11-16T16:44:45.520Z,79.50
2022-11-16T16:47:13.796Z,80.09
2022-11-16T16:49:41.782Z,80.13
2022-11-16T16:52:12.799Z,80.23
2022-11-16T16:54:40.706Z,80.17
2022-11-16T16:57:17.082Z,79.75
2022-11-16T16:59:48.036Z,79.29
2022-11-16T17:02:16.086Z,78.63
2022-11-16T17:04:46.452Z,78.79
2022-11-16T17:07:14.160Z,78.84
2022-11-16T17:09:42.210Z,78.69
2022-11-16T17:12:10.798Z,78.01
2022-11-16T17:14:39.789Z,78.26
2022-11-16T17:17:07.460Z,77.94
2022-11-16T17:19:35.091Z,77.22
2022-11-16T17:22:02.770Z,77.42
2022-11-16T17:24:30.628Z,76.95
2022-11-16T17:26:58.283Z,76.95
2022-11-16T17:29:25.895Z,77.33
2022-11-16T17:31:54.964Z,76.46
2022-11-16T17:34:22.610Z,76.57
2022-11-16T17:36:50.344Z,76.44
2022-11-16T17:39:19.091Z,76.71
2022-11-16T17:41:46.733Z,77.26
2022-11-16T17:44:20.144Z,76.82
2022-11-16T17:46:49.149Z,76.85
2022-11-16T17:49:18.152Z,76.56
2022-11-16T17:51:45.764Z,76.49
2022-11-16T17:54:13.385Z,75.85
2022-11-16T17:56:41.018Z,76.31
2022-11-16T17:59:08.681Z,75.75
2022-11-16T18:01:36.700Z,75.91
2022-11-16T18:04:04.648Z,76.04
2022-11-16T18:06:35.078Z,76.53
2022-11-16T18:09:02.945Z,76.14
2022-11-16T18:11:30.737Z,76.23
2022-11-16T18:14:00.522Z,76.47
2022-11-16T18:16:31.590Z,76.26
2022-11-16T18:19:01.058Z,76.12
2022-11-16T18:21:29.244Z,76.32
2022-11-16T18:24:02.985Z,76.21
2022-11-16T18:26:30.742Z,76.14
2022-11-16T18:28:58.386Z,76.59
2022-11-16T18:31:26.345Z,76.66
2022-11-16T18:33:54.204Z,76.65
2022-11-16T18:36:23.022Z,76.78
2022-11-16T18:38:50.887Z,76.53
2022-11-16T18:41:21.808Z,76.29
2022-11-16T18:43:51.412Z,76.22
2022-11-16T18:46:19.602Z,75.82
2022-11-16T18:48:47.634Z,76.31
2022-11-16T18:51:16.623Z,76.36
2022-11-16T18:53:44.391Z,76.39
2022-11-16T18:56:12.422Z,76.34
2022-11-16T18:58:50.907Z,76.08
2022-11-16T19:01:21.754Z,75.79
2022-11-16T19:03:49.595Z,76.12
2022-11-16T19:06:17.987Z,76.10
2022-11-16T19:08:52.106Z,75.99
2022-11-16T19:11:21.673Z,75.65
2022-11-16T19:13:53.971Z,75.53
2022-11-16T19:16:22.548Z,75.79
2022-11-16T19:18:50.321Z,76.53
2022-11-16T19:21:19.325Z,77.13
2022-11-16T19:23:48.655Z,76.64
2022-11-16T19:26:18.497Z,76.74
2022-11-16T19:28:47.995Z,75.90
2022-11-16T19:31:19.420Z,75.38
2022-11-16T19:33:47.697Z,75.47
2022-11-16T19:36:17.057Z,74.46
2022-11-16T19:38:46.386Z,74.98
2022-11-16T19:41:15.931Z,75.44
2022-11-16T19:43:44.070Z,75.17
2022-11-16T19:46:16.440Z,75.20
2022-11-16T19:48:46.882Z,74.92
2022-11-16T19:51:17.010Z,75.28
2022-11-16T19:53:45.437Z,74.80
2022-11-16T19:56:15.434Z,75.58
2022-11-16T19:58:43.636Z,75.99
2022-11-16T20:01:13.363Z,76.38
2022-11-16T20:03:42.208Z,76.07
2022-11-16T20:06:13.114Z,75.96
2022-11-16T20:08:42.370Z,75.62
2022-11-16T20:11:13.973Z,75.65
2022-11-16T20:13:41.993Z,75.43
2022-11-16T20:16:10.892Z,75.38
2022-11-16T20:18:38.761Z,75.84
2022-11-16T20:21:07.259Z,75.68
2022-11-16T20:23:37.532Z,76.08
2022-11-16T20:26:06.488Z,76.16
2022-11-16T20:28:37.620Z,76.11
2022-11-16T20:31:08.651Z,76.19
2022-11-16T20:33:36.746Z,75.45
2022-11-16T20:36:06.790Z,76.07
2022-11-16T20:38:35.922Z,75.97
2022-11-16T20:41:12.028Z,75.82
2022-11-16T20:43:40.304Z,76.49
2022-11-16T20:46:08.376Z,77.05
2022-11-16T20:48:36.529Z,76.28
2022-11-16T20:51:04.498Z,76.35
2022-11-16T20:53:32.788Z,76.97
2022-11-16T20:56:03.029Z,77.18
2022-11-16T20:58:31.108Z,77.42
2022-11-16T21:01:01.162Z,77.60
2022-11-16T21:03:28.947Z,77.67
2022-11-16T21:05:56.751Z,77.24
2022-11-16T21:08:27.080Z,77.12
2022-11-16T21:10:54.910Z,76.85
2022-11-16T21:13:42.358Z,76.80
2022-11-16T21:16:12.360Z,77.08
2022-11-16T21:18:40.638Z,76.86
2022-11-16T21:21:11.063Z,76.79
2022-11-16T21:23:40.939Z,76.52
2022-11-16T21:26:12.729Z,76.49
2022-11-16T21:28:44.558Z,76.40
2022-11-16T21:31:14.048Z,75.63
2022-11-16T21:33:41.749Z,75.82
2022-11-16T21:36:12.474Z,76.13
2022-11-16T21:38:40.525Z,75.68
2022-11-16T21:41:08.784Z,75.67
2022-11-16T21:43:37.234Z,75.30
2022-11-16T21:46:08.338Z,74.62
2022-11-16T21:48:36.940Z,75.99
2022-11-16T21:51:06.276Z,75.61
2022-11-16T21:53:34.687Z,75.40
2022-11-16T21:56:02.675Z,74.50
2022-11-16T21:58:30.263Z,74.09
2022-11-16T22:00:59.383Z,73.85
2022-11-16T22:03:30.194Z,74.02
2022-11-16T22:06:17.538Z,73.52
2022-11-16T22:08:45.237Z,74.17
2022-11-16T22:11:13.604Z,74.37
2022-11-16T22:13:41.679Z,74.60
2022-11-16T22:16:10.939Z,74.38
2022-11-16T22:18:40.553Z,74.60
2022-11-16T22:21:08.733Z,74.75
2022-11-16T22:23:37.449Z,74.65
2022-11-16T22:26:07.554Z,74.52
2022-11-16T22:28:36.194Z,74.35
2022-11-16T22:31:05.315Z,74.05
2022-11-16T22:33:34.576Z,74.67
2022-11-16T22:36:04.139Z,74.65
2022-11-16T22:38:32.401Z,75.02
2022-11-16T22:40:59.999Z,75.02
2022-11-16T22:43:29.074Z,75.04
2022-11-16T22:46:00.640Z,75.39
2022-11-16T22:48:32.479Z,75.31
2022-11-16T22:51:06.844Z,74.92
2022-11-16T22:53:35.303Z,74.77
2022-11-16T22:56:08.108Z,74.83
2022-11-16T22:58:36.120Z,74.30
2022-11-16T23:01:04.150Z,74.14
2022-11-16T23:03:32.404Z,74.00
2022-11-16T23:06:00.604Z,73.84
2022-11-16T23:08:29.647Z,74.22
2022-11-16T23:11:19.134Z,73.56
2022-11-16T23:14:04.414Z,73.61
2022-11-16T23:16:32.104Z,73.72
2022-11-16T23:19:00.192Z,73.73
2022-11-16T23:21:45.527Z,73.75
2022-11-16T23:24:33.805Z,74.34
2022-11-16T23:27:21.233Z,74.27
2022-11-16T23:29:49.090Z,74.41
2022-11-16T23:32:16.754Z,73.96
2022-11-16T23:34:44.408Z,74.14
2022-11-16T23:37:11.992Z,74.19
2022-11-16T23:39:41.049Z,74.82
2022-11-16T23:42:26.659Z,75.14
2022-11-16T23:44:54.415Z,76.06
2022-11-16T23:47:22.277Z,76.96
2022-11-16T23:49:50.221Z,76.96
2022-11-16T23:52:17.885Z,77.59
2022-11-16T23:54:46.948Z,77.71
2022-11-16T23:57:14.639Z,77.93
2022-11-16T23:59:42.299Z,78.26
